Fox Chase Manor, Pennsylvania
Current Conditions -  °F | °C
As of 6:54 PM on Monday 24 Nov 2014 (Local Time) from KPNE Reporting Station
Clear Clear  
Wind Chill: 67°   Ceiling: Unl
Heat Index: 67°   Visibility: 10mi
Dew Point: 53°   Wind: 12mph
Humidity: 61%   Direction: 210°SSW
Pressure: 29.71"   Gusts: NA
Location:  40.1039°N, 75.1072°W
Report Text: KPNE 242354Z AUTO 21010KT 10SM CLR 19/12 A2971 RMK AO2 SLP059 T01940117 10228 20194 51021 TSNO $
Loading
Personal Weather Stations






























Interactive Weather Map New forecast layout! Learn more

10-Day Weather Forecast

Advertisements
Track Severe Weather on mobile